Valera, Texas
Current Conditions -  °F | °C
As of 11:55 AM on Friday 21 Nov 2014 (Local Time) from KCOM Reporting Station
Overcast Overcast  
Wind Chill: 66°   Ceiling: 2000
Heat Index: 66°   Visibility: 10mi
Dew Point: 59°   Wind: 9mph
Humidity: 79%   Direction: 200°SSW
Pressure: 30.08"   Gusts: NA
Location:  31.75°N, 99.55°W
Report Text: KCOM 211755Z AUTO 20008KT 10SM BKN020 OVC026 19/15 A3008 RMK AO2 T01870149 10187 20126
Loading
Personal Weather Stations






























Interactive Weather Map New forecast layout! Learn more

10-Day Weather Forecast

Advertisements
Track Severe Weather on mobile